Time;durP1;ratioP1;P1;durP2;ratioP2;P2;SDS_P1;SDS_P2;PMS_P1;PMS_P2;Temp;Humidity;BMP_temperature;BMP_pressure;BME280_temperature;BME280_humidity;BME280_pressure;Samples;Min_cycle;Max_cycle;Signal;HPM_P1;HPM_P2
2023/06/09 01:11:41;;;;;;;;;;;;;;;;;;4878300;29;1985;-59
2023/06/09 01:14:17;;;;;;;;;;;;;;;;;;4878118;29;2189;-61
2023/06/09 01:16:57;;;;;;;;;;;;;;;;;;4878082;29;2028;-58
2023/06/09 01:19:31;;;;;;;;;;;;;;;;;;4878245;29;2399;-58
2023/06/09 01:22:19;;;;;;;;;;;;;;;;;;4892143;29;2044;-61
2023/06/09 01:24:47;;;;;;;;;;;;;;;;;;4880526;29;2506;-59
2023/06/09 01:27:16;;;;;;;;;;;;;;;;;;4877732;29;2238;-61
2023/06/09 01:29:46;;;;;;;;;;;;;;;;;;4877860;29;2265;-60
2023/06/09 01:32:15;;;;;;;;;;;;;;;;;;4892025;29;2550;-56
2023/06/09 01:34:43;;;;;;;;;;;;;;;;;;4877820;29;2101;-57
2023/06/09 01:37:11;;;;;;;;;;;;;;;;;;4877982;29;2022;-61
2023/06/09 01:39:40;;;;;;;;;;;;;;;;;;4877918;29;2105;-61
2023/06/09 01:42:07;;;;;;;;;;;;;;;;;;4891813;29;2373;-57
2023/06/09 01:44:36;;;;;;;;;;;;;;;;;;4877668;29;2270;-57
2023/06/09 01:47:05;;;;;;;;;;;;;;;;;;4877817;29;2093;-57
2023/06/09 01:50:04;;;;;;;;;;;;;;;;;;4877942;29;1773;-61
2023/06/09 01:52:46;;;;;;;;;;;;;;;;;;4867842;29;2089;-55
2023/06/09 01:55:34;;;;;;;;;;;;;;;;;;4876480;29;2153;-57
2023/06/09 01:58:13;;;;;;;;;;;;;;;;;;4876810;29;2331;-56
2023/06/09 02:00:42;;;;;;;;;;;;;;;;;;4877568;29;2244;-60
2023/06/09 02:03:10;;;;;;;;;;;;;;;;;;4891739;29;2238;-56
2023/06/09 02:05:39;;;;;;;;;;;;;;;;;;4877290;29;2439;-58
2023/06/09 02:08:08;;;;;;;;;;;;;;;;;;4877473;29;2090;-59
2023/06/09 02:10:36;;;;;;;;;;;;;;;;;;4869455;29;2049;-57
2023/06/09 02:13:13;;;;;;;;;;;;;;;;;;4858990;29;2351;-52
2023/06/09 02:15:42;;;;;;;;;;;;;;;;;;4888078;29;2092;-60
2023/06/09 02:18:11;;;;;;;;;;;;;;;;;;4888257;29;2169;-57
2023/06/09 02:20:40;;;;;;;;;;;;;;;;;;4858421;29;2264;-57
2023/06/09 02:23:07;;;;;;;;;;;;;;;;;;4858827;29;2101;-60
2023/06/09 02:25:35;;;;;;;;;;;;;;;;;;4860470;29;2202;-60
2023/06/09 02:28:03;;;;;;;;;;;;;;;;;;4858577;29;2258;-55
2023/06/09 02:30:31;;;;;;;;;;;;;;;;;;4858323;29;2273;-56
2023/06/09 02:33:00;;;;;;;;;;;;;;;;;;4858485;29;2225;-55
2023/06/09 02:35:28;;;;;;;;;;;;;;;;;;4858572;29;2278;-52
2023/06/09 02:37:57;;;;;;;;;;;;;;;;;;4872730;29;2314;-58
2023/06/09 02:40:28;;;;;;;;;;;;;;;;;;4872656;29;2135;-60
2023/06/09 02:42:55;;;;;;;;;;;;;;;;;;4872348;29;2134;-59
2023/06/09 02:45:22;;;;;;;;;;;;;;;;;;4857037;29;2146;-57
2023/06/09 02:47:50;;;;;;;;;;;;;;;;;;4858167;29;2325;-57
2023/06/09 02:50:18;;;;;;;;;;;;;;;;;;4872516;29;2076;-60
2023/06/09 02:52:51;;;;;;;;;;;;;;;;;;4879220;29;2018;-61
2023/06/09 02:55:20;;;;;;;;;;;;;;;;;;4892823;29;2576;-57
2023/06/09 02:57:49;;;;;;;;;;;;;;;;;;4872369;29;2027;-56
2023/06/09 03:00:20;;;;;;;;;;;;;;;;;;4873464;29;2210;-57
2023/06/09 03:02:51;;;;;;;;;;;;;;;;;;4877452;29;2310;-54
2023/06/09 03:05:24;;;;;;;;;;;;;;;;;;4872279;29;2230;-60
2023/06/09 03:07:53;;;;;;;;;;;;;;;;;;4882859;29;2101;-56
2023/06/09 03:10:21;;;;;;;;;;;;;;;;;;4894865;29;2521;-53
2023/06/09 03:12:52;;;;;;;;;;;;;;;;;;4894629;29;2151;-53
2023/06/09 03:15:20;;;;;;;;;;;;;;;;;;4894650;29;2416;-57
2023/06/09 03:17:48;;;;;;;;;;;;;;;;;;4894501;29;2108;-52
2023/06/09 03:20:16;;;;;;;;;;;;;;;;;;4894499;29;2324;-57
2023/06/09 03:22:47;;;;;;;;;;;;;;;;;;4894442;29;2212;-50
2023/06/09 03:25:16;;;;;;;;;;;;;;;;;;4893400;29;2308;-54
2023/06/09 03:27:43;;;;;;;;;;;;;;;;;;4875687;29;2291;-54
2023/06/09 03:30:12;;;;;;;;;;;;;;;;;;4875832;29;2193;-50
2023/06/09 03:32:42;;;;;;;;;;;;;;;;;;4880201;29;2000;-55
2023/06/09 03:35:09;;;;;;;;;;;;;;;;;;4891506;29;2295;-51
2023/06/09 03:37:37;;;;;;;;;;;;;;;;;;4861693;29;2334;-60
2023/06/09 03:40:05;;;;;;;;;;;;;;;;;;4871870;29;1995;-56
2023/06/09 03:42:32;;;;;;;;;;;;;;;;;;4879908;29;2105;-54
2023/06/09 03:45:00;;;;;;;;;;;;;;;;;;4879979;29;2119;-51
2023/06/09 03:47:29;;;;;;;;;;;;;;;;;;4893941;29;1867;-60
2023/06/09 03:49:57;;;;;;;;;;;;;;;;;;4893883;29;2060;-54
2023/06/09 03:52:26;;;;;;;;;;;;;;;;;;4893834;29;2225;-60
2023/06/09 03:54:55;;;;;;;;;;;;;;;;;;4892437;29;2099;-53
2023/06/09 03:57:22;;;;;;;;;;;;;;;;;;4893952;29;2128;-59
2023/06/09 03:59:50;;;;;;;;;;;;;;;;;;4861139;29;2197;-57
2023/06/09 04:02:18;;;;;;;;;;;;;;;;;;4877355;29;2267;-59
2023/06/09 04:04:45;;;;;;;;;;;;;;;;;;4879444;29;2221;-50
2023/06/09 04:07:14;;;;;;;;;;;;;;;;;;4879236;29;2007;-52
2023/06/09 04:09:41;;;;;;;;;;;;;;;;;;4893787;29;2053;-52
2023/06/09 04:12:09;;;;;;;;;;;;;;;;;;4879421;29;2218;-62
2023/06/09 04:14:37;;;;;;;;;;;;;;;;;;4893752;29;2106;-54
2023/06/09 04:17:05;;;;;;;;;;;;;;;;;;4893545;29;2091;-56
2023/06/09 04:19:33;;;;;;;;;;;;;;;;;;4892751;29;2048;-53
2023/06/09 04:22:04;;;;;;;;;;;;;;;;;;4893372;29;2351;-53
2023/06/09 04:24:32;;;;;;;;;;;;;;;;;;4879229;29;2280;-61
2023/06/09 04:27:02;;;;;;;;;;;;;;;;;;4893496;29;2359;-60
2023/06/09 04:29:32;;;;;;;;;;;;;;;;;;4893181;29;2045;-53
2023/06/09 04:32:00;;;;;;;;;;;;;;;;;;4893350;29;2616;-52
2023/06/09 04:34:38;;;;;;;;;;;;;;;;;;4893318;29;2246;-56
2023/06/09 04:37:08;;;;;;;;;;;;;;;;;;4893300;29;2248;-54
2023/06/09 04:39:35;;;;;;;;;;;;;;;;;;4878822;29;2321;-55
2023/06/09 04:42:05;;;;;;;;;;;;;;;;;;4893061;29;2083;-52
2023/06/09 04:44:33;;;;;;;;;;;;;;;;;;4893141;29;2159;-60
2023/06/09 04:47:02;;;;;;;;;;;;;;;;;;4893121;29;2205;-60
2023/06/09 04:49:31;;;;;;;;;;;;;;;;;;4878596;29;2544;-62
2023/06/09 04:51:59;;;;;;;;;;;;;;;;;;4893077;29;2057;-61
2023/06/09 04:54:31;;;;;;;;;;;;;;;;;;4892079;29;2108;-56
2023/06/09 04:57:03;;;;;;;;;;;;;;;;;;4874302;29;2542;-55
2023/06/09 04:59:34;;;;;;;;;;;;;;;;;;4874149;29;2209;-52
2023/06/09 05:02:02;;;;;;;;;;;;;;;;;;4874255;29;2201;-59
2023/06/09 05:04:30;;;;;;;;;;;;;;;;;;4874125;29;2175;-54
2023/06/09 05:06:57;;;;;;;;;;;;;;;;;;4874104;29;2128;-55
2023/06/09 05:09:24;;;;;;;;;;;;;;;;;;4859969;29;2074;-55
2023/06/09 05:11:52;;;;;;;;;;;;;;;;;;4859977;29;2014;-52
2023/06/09 05:14:20;;;;;;;;;;;;;;;;;;4859811;29;2174;-53
2023/06/09 05:16:49;;;;;;;;;;;;;;;;;;4873845;29;2126;-53
2023/06/09 05:19:16;;;;;;;;;;;;;;;;;;4874224;29;2274;-54
2023/06/09 05:21:46;;;;;;;;;;;;;;;;;;4873815;29;2369;-51
2023/06/09 05:24:14;;;;;;;;;;;;;;;;;;4873915;29;2045;-52
2023/06/09 05:26:42;;;;;;;;;;;;;;;;;;4890109;29;2201;-55
2023/06/09 05:29:10;;;;;;;;;;;;;;;;;;4876852;29;2231;-58
2023/06/09 05:31:38;;;;;;;;;;;;;;;;;;4877479;29;2059;-54
2023/06/09 05:34:06;;;;;;;;;;;;;;;;;;4876065;29;2142;-52
2023/06/09 05:36:34;;;;;;;;;;;;;;;;;;4889241;29;2169;-59
2023/06/09 05:39:01;;;;;;;;;;;;;;;;;;4890635;29;2202;-57
2023/06/09 05:41:28;;;;;;;;;;;;;;;;;;4876893;29;1998;-61
2023/06/09 05:43:57;;;;;;;;;;;;;;;;;;4877877;29;2347;-61
2023/06/09 05:46:25;;;;;;;;;;;;;;;;;;4877845;29;2143;-61
2023/06/09 05:48:53;;;;;;;;;;;;;;;;;;4877813;29;2115;-60
2023/06/09 05:51:20;;;;;;;;;;;;;;;;;;4877960;29;2511;-53
2023/06/09 05:53:47;;;;;;;;;;;;;;;;;;4878898;29;2240;-53
2023/06/09 05:56:16;;;;;;;;;;;;;;;;;;4877978;29;2367;-60
2023/06/09 05:58:44;;;;;;;;;;;;;;;;;;4877877;29;2227;-55
2023/06/09 06:01:12;;;;;;;;;;;;;;;;;;4877614;29;2489;-55
2023/06/09 06:03:41;;;;;;;;;;;;;;;;;;4876116;29;2198;-61
2023/06/09 06:06:11;;;;;;;;;;;;;;;;;;4877676;29;2137;-62
2023/06/09 06:08:38;;;;;;;;;;;;;;;;;;4877644;29;2584;-55
2023/06/09 06:11:06;;;;;;;;;;;;;;;;;;4877188;29;2312;-59
2023/06/09 06:13:33;;;;;;;;;;;;;;;;;;4877611;29;2219;-61
2023/06/09 06:16:00;;;;;;;;;;;;;;;;;;4877347;29;2194;-58
2023/06/09 06:18:28;;;;;;;;;;;;;;;;;;4877709;29;2270;-60
2023/06/09 06:20:55;;;;;;;;;;;;;;;;;;4877238;29;2550;-54
2023/06/09 06:23:22;;;;;;;;;;;;;;;;;;4877401;29;2251;-55
2023/06/09 06:25:50;;;;;;;;;;;;;;;;;;4877298;29;2115;-62
2023/06/09 06:28:19;;;;;;;;;;;;;;;;;;4877004;29;2514;-56
2023/06/09 06:30:47;;;;;;;;;;;;;;;;;;4877398;29;2268;-62
2023/06/09 06:33:15;;;;;;;;;;;;;;;;;;4877288;29;2190;-59
2023/06/09 06:35:42;;;;;;;;;;;;;;;;;;4877310;29;2304;-53
2023/06/09 06:38:09;;;;;;;;;;;;;;;;;;4877110;29;2427;-61
2023/06/09 06:40:36;;;;;;;;;;;;;;;;;;4877080;29;2227;-61
2023/06/09 06:43:03;;;;;;;;;;;;;;;;;;4876511;29;2107;-55
2023/06/09 06:45:54;;;;;;;;;;;;;;;;;;4877436;29;2020;-55
2023/06/09 06:48:21;;;;;;;;;;;;;;;;;;4877255;29;2130;-61
2023/06/09 06:50:48;;;;;;;;;;;;;;;;;;4877070;29;2314;-57
2023/06/09 06:53:16;;;;;;;;;;;;;;;;;;4876609;29;2435;-62
2023/06/09 06:55:43;;;;;;;;;;;;;;;;;;4877131;29;2249;-56
2023/06/09 06:58:10;;;;;;;;;;;;;;;;;;4876954;29;2261;-60
2023/06/09 07:00:37;;;;;;;;;;;;;;;;;;4877327;29;2353;-55
2023/06/09 07:03:04;;;;;;;;;;;;;;;;;;4876898;29;2248;-52
2023/06/09 07:05:32;;;;;;;;;;;;;;;;;;4877025;29;2088;-61
2023/06/09 07:07:59;;;;;;;;;;;;;;;;;;4877013;29;2259;-61
2023/06/09 07:10:27;;;;;;;;;;;;;;;;;;4876765;29;2054;-49
2023/06/09 07:12:54;;;;;;;;;;;;;;;;;;4876884;29;2293;-53
2023/06/09 07:15:21;;;;;;;;;;;;;;;;;;4876843;29;2220;-55
2023/06/09 07:17:48;;;;;;;;;;;;;;;;;;4876775;29;1957;-54
2023/06/09 07:20:16;;;;;;;;;;;;;;;;;;4876747;29;2066;-50
2023/06/09 07:22:46;;;;;;;;;;;;;;;;;;4876799;29;2497;-54
2023/06/09 07:25:14;;;;;;;;;;;;;;;;;;4862173;29;2054;-58
2023/06/09 07:27:41;;;;;;;;;;;;;;;;;;4858386;29;1954;-61
2023/06/09 07:30:09;;;;;;;;;;;;;;;;;;4858099;29;2387;-53
2023/06/09 07:32:39;;;;;;;;;;;;;;;;;;4858073;29;2433;-54
2023/06/09 07:35:07;;;;;;;;;;;;;;;;;;4858165;29;2050;-55
2023/06/09 07:37:39;;;;;;;;;;;;;;;;;;4858180;29;2045;-50
2023/06/09 07:40:07;;;;;;;;;;;;;;;;;;4858115;29;2233;-60
2023/06/09 07:42:44;;;;;;;;;;;;;;;;;;4858076;29;2534;-55
2023/06/09 07:45:11;;;;;;;;;;;;;;;;;;4857982;29;1935;-61
2023/06/09 07:47:39;;;;;;;;;;;;;;;;;;4857768;29;2107;-53
2023/06/09 07:50:06;;;;;;;;;;;;;;;;;;4858015;29;1978;-59
2023/06/09 07:52:37;;;;;;;;;;;;;;;;;;4857926;29;2015;-60
2023/06/09 07:55:05;;;;;;;;;;;;;;;;;;4879138;29;1872;-60
2023/06/09 07:57:35;;;;;;;;;;;;;;;;;;4879864;29;1858;-54
2023/06/09 08:00:03;;;;;;;;;;;;;;;;;;4879973;29;1955;-54
2023/06/09 08:02:41;;;;;;;;;;;;;;;;;;4879871;29;1985;-56
2023/06/09 08:05:13;;;;;;;;;;;;;;;;;;4894138;29;2097;-58
2023/06/09 08:07:40;;;;;;;;;;;;;;;;;;4879643;29;1921;-57
2023/06/09 08:10:08;;;;;;;;;;;;;;;;;;4879886;29;2133;-60
2023/06/09 08:12:36;;;;;;;;;;;;;;;;;;4879418;29;1982;-60
2023/06/09 08:15:04;;;;;;;;;;;;;;;;;;4879731;29;2096;-60
2023/06/09 08:17:31;;;;;;;;;;;;;;;;;;4879502;29;1890;-53
2023/06/09 08:19:58;;;;;;;;;;;;;;;;;;4879673;29;2089;-49
2023/06/09 08:22:25;;;;;;;;;;;;;;;;;;4879719;29;2157;-54
2023/06/09 08:24:52;;;;;;;;;;;;;;;;;;4879562;29;2228;-55
2023/06/09 08:27:20;;;;;;;;;;;;;;;;;;4879179;29;2396;-60
2023/06/09 08:29:49;;;;;;;;;;;;;;;;;;4879307;29;1974;-55
2023/06/09 08:32:16;;;;;;;;;;;;;;;;;;4879414;29;2123;-57
2023/06/09 08:34:43;;;;;;;;;;;;;;;;;;4879429;29;2020;-56
2023/06/09 08:37:11;;;;;;;;;;;;;;;;;;4878983;29;2457;-56
2023/06/09 08:39:39;;;;;;;;;;;;;;;;;;4879164;29;2030;-50
2023/06/09 08:42:11;;;;;;;;;;;;;;;;;;4879270;29;2104;-54
2023/06/09 08:44:40;;;;;;;;;;;;;;;;;;4879203;29;2068;-60
2023/06/09 08:47:08;;;;;;;;;;;;;;;;;;4878767;29;1884;-61
2023/06/09 08:49:36;;;;;;;;;;;;;;;;;;4878848;29;2072;-59
2023/06/09 08:52:04;;;;;;;;;;;;;;;;;;4878925;29;1972;-55
2023/06/09 08:54:32;;;;;;;;;;;;;;;;;;4881783;29;2220;-60
2023/06/09 08:56:59;;;;;;;;;;;;;;;;;;4879176;29;2110;-60
2023/06/09 08:59:33;;;;;;;;;;;;;;;;;;4879022;29;2392;-60
2023/06/09 09:02:06;;;;;;;;;;;;;;;;;;4879035;29;2088;-58
2023/06/09 09:04:33;;;;;;;;;;;;;;;;;;4878648;29;2120;-50
2023/06/09 09:07:02;;;;;;;;;;;;;;;;;;4878150;29;2178;-58
2023/06/09 09:09:29;;;;;;;;;;;;;;;;;;4878777;29;2151;-52
2023/06/09 09:11:59;;;;;;;;;;;;;;;;;;4878691;29;2128;-58
2023/06/09 09:14:30;;;;;;;;;;;;;;;;;;4878802;29;2130;-59
2023/06/09 09:16:57;;;;;;;;;;;;;;;;;;4878469;29;1888;-57
2023/06/09 09:19:28;;;;;;;;;;;;;;;;;;4878617;29;2105;-52
2023/06/09 09:22:05;;;;;;;;;;;;;;;;;;4878253;29;2141;-61
2023/06/09 09:24:33;;;;;;;;;;;;;;;;;;4878641;29;2065;-60
2023/06/09 09:27:00;;;;;;;;;;;;;;;;;;4878468;29;2122;-56
2023/06/09 09:29:28;;;;;;;;;;;;;;;;;;4878152;29;2339;-60
2023/06/09 09:31:57;;;;;;;;;;;;;;;;;;4878253;29;2096;-58
2023/06/09 09:34:26;;;;;;;;;;;;;;;;;;4892656;29;2117;-58
2023/06/09 09:36:54;;;;;;;;;;;;;;;;;;4878243;29;2276;-61
2023/06/09 09:39:22;;;;;;;;;;;;;;;;;;4878281;29;2137;-53
2023/06/09 09:42:02;;;;;;;;;;;;;;;;;;4878007;29;2295;-59
2023/06/09 09:44:38;;;;;;;;;;;;;;;;;;4878041;29;2132;-51
2023/06/09 09:47:15;;;;;;;;;;;;;;;;;;4877633;29;2464;-54
2023/06/09 09:49:58;;;;;;;;;;;;;;;;;;4877877;29;2168;-56
2023/06/09 09:52:29;;;;;;;;;;;;;;;;;;4877872;29;2204;-55
2023/06/09 09:55:00;;;;;;;;;;;;;;;;;;4879765;29;2126;-61
2023/06/09 09:57:31;;;;;;;;;;;;;;;;;;4878114;29;2128;-60
2023/06/09 10:00:00;;;;;;;;;;;;;;;;;;4877770;29;2167;-60
2023/06/09 10:02:41;;;;;;;;;;;;;;;;;;4877555;29;2126;-61
2023/06/09 10:05:10;;;;;;;;;;;;;;;;;;4877464;29;2082;-60
2023/06/09 10:07:39;;;;;;;;;;;;;;;;;;4877511;29;2192;-56
2023/06/09 10:10:09;;;;;;;;;;;;;;;;;;4877570;29;2146;-61
2023/06/09 10:12:37;;;;;;;;;;;;;;;;;;4877937;29;2036;-57
2023/06/09 10:15:08;;;;;;;;;;;;;;;;;;4877785;29;2295;-57
2023/06/09 10:17:36;;;;;;;;;;;;;;;;;;4876619;29;1994;-60
2023/06/09 10:20:05;;;;;;;;;;;;;;;;;;4877637;29;2263;-60
2023/06/09 10:22:33;;;;;;;;;;;;;;;;;;4877314;29;2037;-54
2023/06/09 10:25:00;;;;;;;;;;;;;;;;;;4877100;29;2183;-60
2023/06/09 10:27:28;;;;;;;;;;;;;;;;;;4877381;29;2162;-59
2023/06/09 10:29:56;;;;;;;;;;;;;;;;;;4877102;29;2017;-57
2023/06/09 10:32:26;;;;;;;;;;;;;;;;;;4891461;29;2277;-56
2023/06/09 10:34:54;;;;;;;;;;;;;;;;;;4877058;29;2205;-59
2023/06/09 10:37:31;;;;;;;;;;;;;;;;;;4877238;29;2137;-58
2023/06/09 10:40:11;;;;;;;;;;;;;;;;;;4876791;29;2013;-52
2023/06/09 10:42:44;;;;;;;;;;;;;;;;;;4877130;29;2006;-58
2023/06/09 10:45:13;;;;;;;;;;;;;;;;;;4877127;29;2035;-57
2023/06/09 10:47:44;;;;;;;;;;;;;;;;;;4876996;29;2290;-59
2023/06/09 10:50:30;;;;;;;;;;;;;;;;;;4877328;29;2211;-59
2023/06/09 10:52:58;;;;;;;;;;;;;;;;;;4876764;29;2201;-55
2023/06/09 10:55:27;;;;;;;;;;;;;;;;;;4877996;29;2113;-55
2023/06/09 10:57:55;;;;;;;;;;;;;;;;;;4876913;29;2013;-53
2023/06/09 11:00:23;;;;;;;;;;;;;;;;;;4876868;29;2373;-56
2023/06/09 11:03:08;;;;;;;;;;;;;;;;;;4876828;29;2429;-56
2023/06/09 11:05:42;;;;;;;;;;;;;;;;;;4876746;29;2092;-60
2023/06/09 11:08:10;;;;;;;;;;;;;;;;;;4877036;29;2181;-54
2023/06/09 11:10:37;;;;;;;;;;;;;;;;;;4876759;29;2012;-58
2023/06/09 11:13:28;;;;;;;;;;;;;;;;;;4876846;29;2021;-61
2023/06/09 11:16:01;;;;;;;;;;;;;;;;;;4878255;29;2290;-60
2023/06/09 11:18:29;;;;;;;;;;;;;;;;;;4876815;29;2163;-59
2023/06/09 11:21:23;;;;;;;;;;;;;;;;;;4876768;29;2128;-60
2023/06/09 11:24:00;;;;;;;;;;;;;;;;;;4861178;29;2186;-60
2023/06/09 11:26:28;;;;;;;;;;;;;;;;;;4857753;29;2279;-61
2023/06/09 11:28:55;;;;;;;;;;;;;;;;;;4858863;29;2147;-51
2023/06/09 11:31:23;;;;;;;;;;;;;;;;;;4861816;29;2030;-58
2023/06/09 11:33:51;;;;;;;;;;;;;;;;;;4861824;29;2444;-61
2023/06/09 11:36:19;;;;;;;;;;;;;;;;;;4861619;29;2581;-61
2023/06/09 11:38:47;;;;;;;;;;;;;;;;;;4861502;29;2203;-51
2023/06/09 11:41:18;;;;;;;;;;;;;;;;;;4861675;29;2029;-56
2023/06/09 11:43:52;;;;;;;;;;;;;;;;;;4861702;29;1930;-58
2023/06/09 11:46:19;;;;;;;;;;;;;;;;;;4861480;29;2125;-53
2023/06/09 11:49:00;;;;;;;;;;;;;;;;;;4861646;29;1887;-50
2023/06/09 11:51:27;;;;;;;;;;;;;;;;;;4861467;29;1745;-52
2023/06/09 11:53:54;;;;;;;;;;;;;;;;;;4880177;29;1964;-60
2023/06/09 11:56:22;;;;;;;;;;;;;;;;;;4879959;29;1931;-60
2023/06/09 11:58:52;;;;;;;;;;;;;;;;;;4880121;29;2144;-60
2023/06/09 12:01:23;;;;;;;;;;;;;;;;;;4879716;29;1798;-61
2023/06/09 12:03:50;;;;;;;;;;;;;;;;;;4879670;29;1982;-54
2023/06/09 12:06:17;;;;;;;;;;;;;;;;;;4879892;29;2101;-58
2023/06/09 12:08:46;;;;;;;;;;;;;;;;;;4879883;29;1962;-52
2023/06/09 12:11:16;;;;;;;;;;;;;;;;;;4880002;29;2268;-60
2023/06/09 12:13:47;;;;;;;;;;;;;;;;;;4879692;29;2179;-59
2023/06/09 12:16:14;;;;;;;;;;;;;;;;;;4879344;29;2072;-60
2023/06/09 12:18:42;;;;;;;;;;;;;;;;;;4878272;29;2272;-51
2023/06/09 12:21:09;;;;;;;;;;;;;;;;;;4879130;29;2113;-53
2023/06/09 12:23:37;;;;;;;;;;;;;;;;;;4879334;29;2050;-55
2023/06/09 12:26:06;;;;;;;;;;;;;;;;;;4879090;29;2217;-60
2023/06/09 12:28:34;;;;;;;;;;;;;;;;;;4879092;29;2450;-55
2023/06/09 12:31:11;;;;;;;;;;;;;;;;;;4879168;29;2222;-49
2023/06/09 12:33:45;;;;;;;;;;;;;;;;;;4879088;29;2077;-59
2023/06/09 12:36:12;;;;;;;;;;;;;;;;;;4879148;29;2693;-52
2023/06/09 12:38:40;;;;;;;;;;;;;;;;;;4879082;29;2020;-54
2023/06/09 12:41:08;;;;;;;;;;;;;;;;;;4878172;29;2138;-48
2023/06/09 12:43:45;;;;;;;;;;;;;;;;;;4878789;29;2387;-61
2023/06/09 12:46:13;;;;;;;;;;;;;;;;;;4879115;29;2224;-53
2023/06/09 12:49:01;;;;;;;;;;;;;;;;;;4878883;29;2134;-51
2023/06/09 12:51:29;;;;;;;;;;;;;;;;;;4878874;29;2052;-61
2023/06/09 12:53:56;;;;;;;;;;;;;;;;;;4879990;29;2272;-53
2023/06/09 12:56:25;;;;;;;;;;;;;;;;;;4878764;29;2085;-59
2023/06/09 12:58:55;;;;;;;;;;;;;;;;;;4878571;29;2494;-53
2023/06/09 13:01:24;;;;;;;;;;;;;;;;;;4878439;29;2136;-52
2023/06/09 13:03:51;;;;;;;;;;;;;;;;;;4878350;29;2399;-57
2023/06/09 13:06:19;;;;;;;;;;;;;;;;;;4878395;29;2215;-56
2023/06/09 13:08:46;;;;;;;;;;;;;;;;;;4878753;29;2104;-55
2023/06/09 13:11:14;;;;;;;;;;;;;;;;;;4878616;29;2071;-57
2023/06/09 13:13:42;;;;;;;;;;;;;;;;;;4877155;29;2118;-52
2023/06/09 13:16:09;;;;;;;;;;;;;;;;;;4876291;29;2303;-59
2023/06/09 13:18:36;;;;;;;;;;;;;;;;;;4878260;29;2123;-52
2023/06/09 13:21:06;;;;;;;;;;;;;;;;;;4878214;29;2014;-60
2023/06/09 13:23:33;;;;;;;;;;;;;;;;;;4874223;29;2369;-59
2023/06/09 13:26:00;;;;;;;;;;;;;;;;;;4878260;29;2114;-53
2023/06/09 13:28:28;;;;;;;;;;;;;;;;;;4876881;29;2032;-51
2023/06/09 13:30:56;;;;;;;;;;;;;;;;;;4876222;29;2192;-54
2023/06/09 13:33:23;;;;;;;;;;;;;;;;;;4876135;29;2183;-51
2023/06/09 13:35:52;;;;;;;;;;;;;;;;;;4876153;29;2069;-51
2023/06/09 13:38:20;;;;;;;;;;;;;;;;;;4876865;29;1974;-60
2023/06/09 13:40:48;;;;;;;;;;;;;;;;;;4877346;29;2026;-57
2023/06/09 13:43:16;;;;;;;;;;;;;;;;;;4877985;29;2484;-55
2023/06/09 13:45:43;;;;;;;;;;;;;;;;;;4877715;29;2181;-58
2023/06/09 13:48:10;;;;;;;;;;;;;;;;;;4877160;29;2135;-55
2023/06/09 13:50:39;;;;;;;;;;;;;;;;;;4877787;29;2373;-59
2023/06/09 13:53:07;;;;;;;;;;;;;;;;;;4877466;29;2355;-49
2023/06/09 13:55:34;;;;;;;;;;;;;;;;;;4878209;29;2311;-59
2023/06/09 13:58:01;;;;;;;;;;;;;;;;;;4877626;29;2164;-59
2023/06/09 14:00:28;;;;;;;;;;;;;;;;;;4877642;29;2276;-52
2023/06/09 14:02:56;;;;;;;;;;;;;;;;;;4877366;29;2355;-59
2023/06/09 14:05:24;;;;;;;;;;;;;;;;;;4877476;29;2080;-56
2023/06/09 14:07:52;;;;;;;;;;;;;;;;;;4870080;29;2257;-60
2023/06/09 14:10:19;;;;;;;;;;;;;;;;;;4877023;29;1963;-55
2023/06/09 14:12:50;;;;;;;;;;;;;;;;;;4891789;29;1974;-51
2023/06/09 14:15:17;;;;;;;;;;;;;;;;;;4876682;29;2209;-60
2023/06/09 14:17:55;;;;;;;;;;;;;;;;;;4876848;29;2092;-59
2023/06/09 14:20:24;;;;;;;;;;;;;;;;;;4877287;29;2038;-51
2023/06/09 14:22:52;;;;;;;;;;;;;;;;;;4877456;29;2187;-53
2023/06/09 14:25:24;;;;;;;;;;;;;;;;;;4868123;29;2517;-53
2023/06/09 14:27:55;;;;;;;;;;;;;;;;;;4858214;29;2005;-52
2023/06/09 14:30:25;;;;;;;;;;;;;;;;;;4858310;29;2084;-56
2023/06/09 14:32:53;;;;;;;;;;;;;;;;;;4858552;29;2173;-52
2023/06/09 14:35:23;;;;;;;;;;;;;;;;;;4858603;29;2143;-50
2023/06/09 14:38:03;;;;;;;;;;;;;;;;;;4858203;29;2398;-59
2023/06/09 14:40:34;;;;;;;;;;;;;;;;;;4858201;29;2153;-60
2023/06/09 14:43:04;;;;;;;;;;;;;;;;;;4857756;29;2247;-55
2023/06/09 14:45:31;;;;;;;;;;;;;;;;;;4858058;29;2181;-57
2023/06/09 14:48:00;;;;;;;;;;;;;;;;;;4857908;29;2600;-59
2023/06/09 14:50:31;;;;;;;;;;;;;;;;;;4860390;29;1998;-53
2023/06/09 14:52:59;;;;;;;;;;;;;;;;;;4857722;29;2183;-53
2023/06/09 14:55:30;;;;;;;;;;;;;;;;;;4877649;29;2092;-55
2023/06/09 14:57:58;;;;;;;;;;;;;;;;;;4876682;29;2032;-57
2023/06/09 15:00:26;;;;;;;;;;;;;;;;;;4876038;29;2355;-48
2023/06/09 15:02:58;;;;;;;;;;;;;;;;;;4873722;29;2081;-53
2023/06/09 15:05:27;;;;;;;;;;;;;;;;;;4875685;29;2253;-51
2023/06/09 15:07:56;;;;;;;;;;;;;;;;;;4876471;29;2301;-60
2023/06/09 15:10:28;;;;;;;;;;;;;;;;;;4876300;29;2340;-53
2023/06/09 15:12:58;;;;;;;;;;;;;;;;;;4876424;29;2210;-49
2023/06/09 15:15:29;;;;;;;;;;;;;;;;;;4876353;29;2192;-50
2023/06/09 15:18:06;;;;;;;;;;;;;;;;;;4874730;29;2069;-60
2023/06/09 15:20:40;;;;;;;;;;;;;;;;;;4857883;29;2070;-57
2023/06/09 15:23:11;;;;;;;;;;;;;;;;;;4857663;29;2438;-54
2023/06/09 15:25:43;;;;;;;;;;;;;;;;;;4857740;29;2129;-50
2023/06/09 15:28:15;;;;;;;;;;;;;;;;;;4857780;29;2011;-51
2023/06/09 15:30:45;;;;;;;;;;;;;;;;;;4857718;29;2122;-53
2023/06/09 15:33:17;;;;;;;;;;;;;;;;;;4857927;29;1941;-54
2023/06/09 15:35:49;;;;;;;;;;;;;;;;;;4857441;29;1802;-53
2023/06/09 15:38:23;;;;;;;;;;;;;;;;;;4871757;29;2179;-50
2023/06/09 15:40:56;;;;;;;;;;;;;;;;;;4857440;29;2125;-54
2023/06/09 15:43:36;;;;;;;;;;;;;;;;;;4857952;29;2041;-60
2023/06/09 15:46:07;;;;;;;;;;;;;;;;;;4857571;29;1982;-59
2023/06/09 15:48:37;;;;;;;;;;;;;;;;;;4857790;29;2088;-53
2023/06/09 15:51:08;;;;;;;;;;;;;;;;;;4857355;29;2237;-51
2023/06/09 15:53:44;;;;;;;;;;;;;;;;;;4865934;29;2180;-60
2023/06/09 15:56:12;;;;;;;;;;;;;;;;;;4875370;29;1816;-57
2023/06/09 15:58:41;;;;;;;;;;;;;;;;;;4875936;29;1937;-50
2023/06/09 16:01:10;;;;;;;;;;;;;;;;;;4876237;29;2149;-54
2023/06/09 16:03:38;;;;;;;;;;;;;;;;;;4876135;29;2089;-53
2023/06/09 16:06:09;;;;;;;;;;;;;;;;;;4875962;29;1998;-49
2023/06/09 16:08:38;;;;;;;;;;;;;;;;;;4876089;29;2097;-59
2023/06/09 16:11:08;;;;;;;;;;;;;;;;;;4876078;29;2073;-57
2023/06/09 16:13:35;;;;;;;;;;;;;;;;;;4875801;29;2219;-52
2023/06/09 16:16:02;;;;;;;;;;;;;;;;;;4876851;29;2063;-52
2023/06/09 16:18:30;;;;;;;;;;;;;;;;;;4879452;29;2155;-58
2023/06/09 16:20:57;;;;;;;;;;;;;;;;;;4879635;29;2463;-53
2023/06/09 16:23:24;;;;;;;;;;;;;;;;;;4879119;29;2170;-56
2023/06/09 16:25:51;;;;;;;;;;;;;;;;;;4879096;29;2026;-61
2023/06/09 16:28:19;;;;;;;;;;;;;;;;;;4879196;29;2263;-54
2023/06/09 16:30:46;;;;;;;;;;;;;;;;;;4878892;29;2233;-54
2023/06/09 16:33:14;;;;;;;;;;;;;;;;;;4879357;29;2445;-54
2023/06/09 16:35:41;;;;;;;;;;;;;;;;;;4878855;29;2570;-54
2023/06/09 16:38:08;;;;;;;;;;;;;;;;;;4879018;29;2025;-59
2023/06/09 16:40:36;;;;;;;;;;;;;;;;;;4878925;29;2497;-60
2023/06/09 16:43:03;;;;;;;;;;;;;;;;;;4878562;29;1990;-59
2023/06/09 16:45:31;;;;;;;;;;;;;;;;;;4879151;29;2358;-54
2023/06/09 16:47:59;;;;;;;;;;;;;;;;;;4878842;29;2213;-55
2023/06/09 16:50:27;;;;;;;;;;;;;;;;;;4878884;29;2249;-59
2023/06/09 16:52:55;;;;;;;;;;;;;;;;;;4878819;29;2033;-53
2023/06/09 16:55:22;;;;;;;;;;;;;;;;;;4879328;29;1866;-57
2023/06/09 16:57:50;;;;;;;;;;;;;;;;;;4878726;29;1963;-56
2023/06/09 17:00:17;;;;;;;;;;;;;;;;;;4878289;29;2171;-53
2023/06/09 17:02:45;;;;;;;;;;;;;;;;;;4878546;29;1934;-56
2023/06/09 17:05:12;;;;;;;;;;;;;;;;;;4878326;29;2094;-60
2023/06/09 17:07:40;;;;;;;;;;;;;;;;;;4878340;29;1902;-56
2023/06/09 17:10:07;;;;;;;;;;;;;;;;;;4878518;29;2061;-56
2023/06/09 17:12:34;;;;;;;;;;;;;;;;;;4878328;29;1961;-59
2023/06/09 17:15:02;;;;;;;;;;;;;;;;;;4878782;29;2002;-60
2023/06/09 17:17:29;;;;;;;;;;;;;;;;;;4892262;29;2045;-60
2023/06/09 17:19:57;;;;;;;;;;;;;;;;;;4878231;29;2080;-60
2023/06/09 17:22:25;;;;;;;;;;;;;;;;;;4878438;29;2126;-60
2023/06/09 17:24:52;;;;;;;;;;;;;;;;;;4877913;29;2059;-55
2023/06/09 17:27:20;;;;;;;;;;;;;;;;;;4877699;29;1940;-56
2023/06/09 17:29:48;;;;;;;;;;;;;;;;;;4892289;29;2076;-61
2023/06/09 17:32:15;;;;;;;;;;;;;;;;;;4878107;29;2127;-53
2023/06/09 17:34:42;;;;;;;;;;;;;;;;;;4878168;29;2065;-54
2023/06/09 17:37:10;;;;;;;;;;;;;;;;;;4877656;29;2161;-56
2023/06/09 17:39:40;;;;;;;;;;;;;;;;;;4878071;29;1872;-54
2023/06/09 17:42:08;;;;;;;;;;;;;;;;;;4877696;29;2048;-53
2023/06/09 17:44:35;;;;;;;;;;;;;;;;;;4877961;29;2045;-56
2023/06/09 17:47:05;;;;;;;;;;;;;;;;;;4877619;29;1873;-61
2023/06/09 17:49:33;;;;;;;;;;;;;;;;;;4877825;29;2048;-60
2023/06/09 17:52:00;;;;;;;;;;;;;;;;;;4877842;29;2391;-58
2023/06/09 17:54:30;;;;;;;;;;;;;;;;;;4877432;29;2206;-57
2023/06/09 17:57:01;;;;;;;;;;;;;;;;;;4877747;29;2072;-54
2023/06/09 17:59:28;;;;;;;;;;;;;;;;;;4876990;29;2061;-57
2023/06/09 18:01:56;;;;;;;;;;;;;;;;;;4877470;29;2007;-50
2023/06/09 18:04:23;;;;;;;;;;;;;;;;;;4877164;29;1815;-52
2023/06/09 18:06:51;;;;;;;;;;;;;;;;;;4877056;29;2235;-52
2023/06/09 18:09:19;;;;;;;;;;;;;;;;;;4877678;29;2238;-55
2023/06/09 18:11:46;;;;;;;;;;;;;;;;;;4877023;29;2076;-52
2023/06/09 18:14:14;;;;;;;;;;;;;;;;;;4891525;29;2190;-57
2023/06/09 18:16:41;;;;;;;;;;;;;;;;;;4876519;29;2132;-54
2023/06/09 18:19:08;;;;;;;;;;;;;;;;;;4872280;29;2023;-53
2023/06/09 18:21:36;;;;;;;;;;;;;;;;;;4859024;29;2225;-56
2023/06/09 18:24:04;;;;;;;;;;;;;;;;;;4858479;29;2052;-60
2023/06/09 18:26:31;;;;;;;;;;;;;;;;;;4858436;29;2043;-59
2023/06/09 18:28:58;;;;;;;;;;;;;;;;;;4872631;29;2036;-58